Time;durP1;ratioP1;P1;durP2;ratioP2;P2;SDS_P1;SDS_P2;PMS_P1;PMS_P2;Temp;Humidity;BMP_temperature;BMP_pressure;BME280_temperature;BME280_humidity;BME280_pressure;Samples;Min_cycle;Max_cycle;Signal;HPM_P1;HPM_P2
2023/03/20 00:04:39;;;;;;;11.68;5.05;;;;;;;4.58;68.56;100856.38;10477363;28;20037;-83
2023/03/20 00:09:41;;;;;;;6.43;4.10;;;;;;;4.68;68.74;100858.47;10485089;28;20693;-83
2023/03/20 00:14:44;;;;;;;11.00;5.25;;;;;;;4.65;68.47;100854.34;10487825;28;20059;-83
2023/03/20 00:19:46;;;;;;;9.25;5.07;;;;;;;4.59;68.84;100854.47;10472980;28;20040;-85
2023/03/20 00:24:48;;;;;;;6.57;4.00;;;;;;;4.59;69.37;100854.47;10498032;28;20040;-83
2023/03/20 00:29:51;;;;;;;7.10;4.63;;;;;;;4.81;69.21;100852.81;10492483;28;20051;-85
2023/03/20 00:34:53;;;;;;;9.27;4.32;;;;;;;4.92;68.66;100849.25;10480789;28;20040;-84
2023/03/20 00:39:55;;;;;;;7.38;4.47;;;;;;;4.91;68.33;100850.31;10505051;28;20041;-83
2023/03/20 00:44:58;;;;;;;6.90;4.47;;;;;;;4.85;68.64;100848.53;10479317;28;20048;-84
2023/03/20 00:50:00;;;;;;;6.95;4.57;;;;;;;4.84;69.15;100846.88;10498631;28;20036;-83
2023/03/20 00:55:03;;;;;;;7.18;4.43;;;;;;;4.74;68.99;100833.91;10528142;28;20028;-83
2023/03/20 01:00:26;;;;;;;8.00;4.47;;;;;;;4.80;69.59;100830.22;10483234;28;20036;-84
2023/03/20 01:05:29;;;;;;;6.22;4.03;;;;;;;4.80;69.25;100823.97;10527987;28;20041;-84
2023/03/20 01:10:31;;;;;;;7.47;4.90;;;;;;;4.75;69.06;100823.88;10526361;28;20072;-83
2023/03/20 01:15:35;;;;;;;6.53;4.70;;;;;;;4.76;69.16;100812.75;10446306;28;20464;-83
2023/03/20 01:20:38;;;;;;;6.82;4.88;;;;;;;4.71;69.88;100811.81;10470119;28;20040;-83
2023/03/20 01:25:41;;;;;;;7.43;4.72;;;;;;;4.66;69.79;100808.97;10482765;28;20051;-83
2023/03/20 01:30:43;;;;;;;6.30;4.10;;;;;;;4.77;69.58;100800.81;10476928;28;20047;-84
2023/03/20 01:35:46;;;;;;;8.73;4.80;;;;;;;4.78;70.33;100813.34;10517628;28;20040;-84
2023/03/20 01:40:54;;;;;;;8.88;4.75;;;;;;;4.84;69.89;100789.78;10513574;28;20036;-84
2023/03/20 01:46:00;;;;;;;8.57;5.03;;;;;;;4.70;69.98;100794.69;10496081;28;20044;-84
2023/03/20 01:51:03;;;;;;;9.65;4.40;;;;;;;4.72;70.62;100794.44;10466146;28;20036;-84
2023/03/20 01:56:06;;;;;;;8.13;5.03;;;;;;;4.41;71.48;100791.03;10474777;28;20044;-84
2023/03/20 02:01:17;;;;;;;7.72;4.75;;;;;;;4.34;72.33;100778.63;10495535;28;20044;-85
2023/03/20 02:06:21;;;;;;;6.40;4.45;;;;;;;4.47;72.62;100779.22;10464228;28;20076;-84
2023/03/20 02:11:50;;;;;;;7.38;5.10;;;;;;;4.49;71.77;100771.66;10478030;28;20049;-84
2023/03/20 02:16:55;;;;;;;7.13;4.63;;;;;;;4.30;72.16;100769.28;10491296;28;20043;-83
2023/03/20 02:22:48;;;;;;;7.43;4.53;;;;;;;4.09;72.71;100759.84;10471927;28;20417;-84
2023/03/20 02:28:10;;;;;;;9.50;5.03;;;;;;;4.10;73.44;100747.94;10487053;28;20048;-83
2023/03/20 02:33:52;;;;;;;7.72;5.28;;;;;;;3.99;73.65;100748.75;10502429;28;20048;-84
2023/03/20 02:39:13;;;;;;;7.22;4.60;;;;;;;4.09;73.71;100743.56;10462902;28;20410;-82
2023/03/20 02:44:24;;;;;;;8.38;4.90;;;;;;;4.40;73.10;100734.22;10506509;28;20505;-83
2023/03/20 02:49:49;;;;;;;8.35;4.63;;;;;;;4.39;72.37;100746.97;10506952;28;20039;-82
2023/03/20 02:55:10;;;;;;;6.88;4.50;;;;;;;4.36;72.86;100739.31;10507141;28;20426;-84
2023/03/20 03:00:22;;;;;;;9.13;5.07;;;;;;;4.34;72.38;100740.59;10475994;28;20036;-82
2023/03/20 03:05:33;;;;;;;10.65;5.30;;;;;;;4.34;72.39;100736.00;10462340;28;20051;-82
2023/03/20 03:10:40;;;;;;;8.05;5.25;;;;;;;4.07;73.34;100740.25;10486162;28;20052;-83
2023/03/20 03:15:46;;;;;;;9.65;5.47;;;;;;;4.13;73.36;100737.41;10487616;28;20063;-84
2023/03/20 03:20:52;;;;;;;13.25;5.32;;;;;;;3.95;73.86;100748.38;10471337;28;20045;-83
2023/03/20 03:25:56;;;;;;;8.90;5.35;;;;;;;4.07;73.90;100748.41;10483785;28;20418;-84
2023/03/20 03:30:59;;;;;;;10.20;5.78;;;;;;;3.98;74.21;100744.38;10483380;28;20048;-83
2023/03/20 03:36:21;;;;;;;11.18;5.55;;;;;;;3.93;74.06;100735.06;10487322;28;20048;-82
2023/03/20 03:41:34;;;;;;;9.82;5.50;;;;;;;3.92;73.78;100740.72;10488531;28;20060;-82
2023/03/20 03:46:47;;;;;;;10.88;5.90;;;;;;;3.92;74.17;100733.41;10472698;28;20045;-83
2023/03/20 03:51:54;;;;;;;9.07;4.65;;;;;;;3.99;74.25;100718.88;10491221;28;20040;-84
2023/03/20 03:56:57;;;;;;;7.72;4.90;;;;;;;3.94;74.98;100703.28;10485064;28;20040;-83
2023/03/20 04:02:02;;;;;;;11.43;5.05;;;;;;;3.78;75.40;100704.81;10503405;28;20048;-82
2023/03/20 04:07:05;;;;;;;7.47;4.50;;;;;;;3.66;75.80;100706.72;10482239;28;20534;-82
2023/03/20 04:12:31;;;;;;;9.63;5.00;;;;;;;3.55;76.37;100705.63;10464245;28;20401;-82
2023/03/20 04:17:33;;;;;;;10.77;4.90;;;;;;;3.62;76.21;100709.03;10497200;28;20043;-83
2023/03/20 04:22:36;;;;;;;7.32;4.55;;;;;;;3.76;75.98;100693.38;10500664;28;20401;-82
2023/03/20 04:27:42;;;;;;;8.05;4.55;;;;;;;4.02;74.94;100694.00;10467124;28;20044;-83
2023/03/20 04:32:52;;;;;;;10.50;5.30;;;;;;;4.30;74.34;100691.34;10476996;28;20051;-83
2023/03/20 04:38:02;;;;;;;9.70;4.80;;;;;;;4.56;73.53;100684.56;10464137;28;20063;-83
2023/03/20 04:43:08;;;;;;;8.82;4.82;;;;;;;4.87;72.87;100679.75;10474486;28;20037;-83
2023/03/20 04:48:10;;;;;;;9.70;5.22;;;;;;;5.17;71.48;100674.03;10475753;28;20045;-83
2023/03/20 04:53:14;;;;;;;9.35;5.78;;;;;;;5.32;71.40;100677.03;10489090;28;20048;-82
2023/03/20 04:58:18;;;;;;;8.15;5.50;;;;;;;5.73;69.76;100663.03;10458660;28;20044;-82
2023/03/20 05:03:21;;;;;;;9.57;5.32;;;;;;;5.96;69.07;100662.06;10483794;28;20472;-82
2023/03/20 05:08:23;;;;;;;10.05;5.30;;;;;;;6.31;68.34;100667.19;10512293;28;20040;-83
2023/03/20 05:13:30;;;;;;;8.97;5.27;;;;;;;6.75;66.55;100660.88;10492982;28;20044;-83
2023/03/20 05:18:38;;;;;;;9.40;5.72;;;;;;;7.15;65.77;100663.25;10475926;28;20500;-83
2023/03/20 05:24:03;;;;;;;12.68;6.60;;;;;;;7.21;64.36;100656.75;10511770;28;20040;-82
2023/03/20 05:29:24;;;;;;;10.02;6.00;;;;;;;7.41;63.77;100654.19;10513388;28;20044;-83
2023/03/20 05:34:50;;;;;;;12.25;6.13;;;;;;;7.62;63.14;100646.16;10527484;28;20425;-82
2023/03/20 05:39:57;;;;;;;9.15;6.28;;;;;;;8.05;61.90;100656.84;10523721;28;20033;-82
2023/03/20 05:45:19;;;;;;;9.52;6.20;;;;;;;8.26;61.05;100649.59;10498846;28;20051;-83
2023/03/20 05:50:43;;;;;;;10.98;6.03;;;;;;;8.51;60.41;100646.19;10498259;28;20044;-84
2023/03/20 05:55:51;;;;;;;15.57;7.93;;;;;;;8.76;59.34;100645.47;10506566;28;20037;-83
2023/03/20 06:01:21;;;;;;;13.52;7.93;;;;;;;8.79;59.18;100644.91;10512402;28;20055;-83
2023/03/20 06:06:36;;;;;;;12.15;7.75;;;;;;;8.76;59.31;100645.47;10497437;28;20483;-83
2023/03/20 06:11:39;;;;;;;10.20;6.77;;;;;;;8.86;59.60;100628.25;10501638;28;20060;-83
2023/03/20 06:16:42;;;;;;;12.55;7.90;;;;;;;9.31;58.45;100625.56;10487484;28;20043;-83
2023/03/20 06:21:46;;;;;;;15.35;7.07;;;;;;;9.72;56.90;100624.72;10463832;28;20387;-84
2023/03/20 06:26:52;;;;;;;14.23;7.07;;;;;;;9.20;58.21;100623.09;10493957;28;20040;-83
2023/03/20 06:31:54;;;;;;;15.43;7.95;;;;;;;9.17;58.74;100618.16;10477948;28;20032;-84
2023/03/20 06:37:05;;;;;;;11.27;7.65;;;;;;;9.76;57.01;100609.41;10471931;28;20044;-83
2023/03/20 06:42:08;;;;;;;13.02;8.10;;;;;;;9.74;55.80;100611.59;10483516;28;20040;-83
2023/03/20 06:47:11;;;;;;;13.15;7.93;;;;;;;9.81;56.79;100604.72;10444528;28;20047;-83
2023/03/20 06:52:18;;;;;;;11.45;7.40;;;;;;;9.84;56.13;100606.91;10493804;28;20394;-83
2023/03/20 06:57:29;;;;;;;14.77;8.30;;;;;;;10.36;55.86;100611.19;10509023;28;20044;-83
2023/03/20 07:02:32;;;;;;;14.10;8.43;;;;;;;10.74;54.17;100597.81;10508113;28;20487;-83
2023/03/20 07:07:34;;;;;;;17.13;8.55;;;;;;;9.92;55.81;100589.91;10483290;28;20040;-84
2023/03/20 07:12:37;;;;;;;14.85;9.68;;;;;;;9.42;57.39;100593.53;10491652;28;20421;-84
2023/03/20 07:17:39;;;;;;;15.48;9.07;;;;;;;8.80;59.46;100589.09;10475924;28;20043;-83
2023/03/20 07:22:42;;;;;;;15.85;9.25;;;;;;;8.13;61.26;100598.94;10470894;28;20043;-83
2023/03/20 07:27:53;;;;;;;15.82;9.48;;;;;;;7.96;62.65;100590.13;10472878;28;20029;-84
2023/03/20 07:32:58;;;;;;;18.73;10.43;;;;;;;8.03;63.37;100578.97;10490748;28;20048;-83
2023/03/20 07:38:05;;;;;;;18.20;9.07;;;;;;;8.27;63.10;100582.06;10489315;28;20497;-83
2023/03/20 07:43:10;;;;;;;15.82;9.43;;;;;;;8.34;63.47;100577.22;10479614;28;20459;-82
2023/03/20 07:48:35;;;;;;;20.88;9.27;;;;;;;7.93;64.45;100574.25;10498802;28;20505;-83
2023/03/20 07:53:39;;;;;;;17.40;10.00;;;;;;;7.71;65.12;100570.88;10496710;28;20402;-83
2023/03/20 07:58:41;;;;;;;17.38;9.48;;;;;;;7.60;65.80;100563.69;10494914;28;20052;-82
2023/03/20 08:03:44;;;;;;;18.15;9.30;;;;;;;7.26;66.58;100567.53;10525763;28;20135;-82
2023/03/20 08:08:46;;;;;;;16.33;9.50;;;;;;;6.88;68.18;100563.13;10511878;28;20037;-80
2023/03/20 08:13:48;;;;;;;16.25;8.82;;;;;;;6.95;69.13;100555.56;10508456;28;20139;-79
2023/03/20 08:18:52;;;;;;;18.83;8.98;;;;;;;6.96;69.26;100540.00;10537371;28;20074;-81
2023/03/20 08:23:54;;;;;;;18.52;9.18;;;;;;;7.04;69.18;100544.97;10510369;28;20408;-81
2023/03/20 08:28:58;;;;;;;20.95;9.90;;;;;;;7.16;68.66;100534.72;10526411;28;20549;-79
2023/03/20 08:34:00;;;;;;;17.58;9.20;;;;;;;7.20;68.26;100540.47;10521940;28;20040;-82
2023/03/20 08:39:02;;;;;;;16.95;8.80;;;;;;;7.02;69.42;100527.22;10493583;28;20044;-83
2023/03/20 08:44:05;;;;;;;18.35;8.50;;;;;;;7.12;69.25;100533.59;10498642;28;20052;-82
2023/03/20 08:49:07;;;;;;;18.33;9.38;;;;;;;7.15;69.80;100526.81;10484475;28;20052;-83
2023/03/20 08:54:09;;;;;;;26.42;9.57;;;;;;;7.08;69.59;100534.38;10536130;28;20041;-81
2023/03/20 08:59:11;;;;;;;18.65;8.52;;;;;;;7.18;69.21;100527.09;10505287;28;20052;-81
2023/03/20 09:04:14;;;;;;;20.38;9.80;;;;;;;7.42;68.53;100522.06;10534001;28;20044;-82
2023/03/20 09:09:18;;;;;;;26.23;9.27;;;;;;;7.66;67.93;100516.22;10488285;28;20044;-83
2023/03/20 09:14:21;;;;;;;19.92;10.32;;;;;;;7.63;67.80;100511.25;10504684;28;20049;-82
2023/03/20 09:19:23;;;;;;;24.23;10.38;;;;;;;7.32;67.80;100510.28;10522153;28;20044;-83
2023/03/20 09:24:26;;;;;;;19.95;9.70;;;;;;;7.47;67.41;100492.09;10521913;28;20058;-82
2023/03/20 09:29:28;;;;;;;17.73;9.70;;;;;;;7.46;67.37;100487.72;10520022;28;20037;-81
2023/03/20 09:34:30;;;;;;;16.27;9.60;;;;;;;7.57;66.42;100470.28;10519764;28;20051;-81
2023/03/20 09:39:33;;;;;;;19.73;9.25;;;;;;;7.48;66.68;100466.44;10537977;28;20028;-84
2023/03/20 09:44:55;;;;;;;22.45;9.60;;;;;;;7.65;66.16;100457.22;10495323;28;20405;-82
2023/03/20 09:50:06;;;;;;;23.73;9.02;;;;;;;7.73;66.08;100462.16;10520347;28;20031;-80
2023/03/20 09:55:15;;;;;;;18.35;9.27;;;;;;;7.83;65.69;100454.03;10533458;28;20044;-80
2023/03/20 10:00:21;;;;;;;18.02;9.23;;;;;;;7.89;64.64;100442.00;10497386;28;20497;-79
2023/03/20 10:06:10;;;;;;;19.15;9.70;;;;;;;7.90;65.34;100434.63;10494217;28;20044;-79
2023/03/20 10:11:53;;;;;;;17.45;9.43;;;;;;;7.96;65.60;100420.72;10531514;28;20486;-84
2023/03/20 10:17:20;;;;;;;18.33;8.77;;;;;;;8.06;64.92;100420.75;10512075;28;20513;-82
2023/03/20 10:22:26;;;;;;;22.08;10.35;;;;;;;8.04;64.71;100417.47;10519407;28;20067;-85
2023/03/20 10:27:33;;;;;;;18.02;9.55;;;;;;;8.18;63.80;100403.28;10499400;28;20056;-80
2023/03/20 10:32:38;;;;;;;16.90;9.27;;;;;;;8.15;63.45;100399.16;10489537;28;20036;-79
2023/03/20 10:37:49;;;;;;;17.02;8.73;;;;;;;8.27;63.41;100396.19;10508533;28;20048;-82
2023/03/20 10:42:53;;;;;;;20.88;9.02;;;;;;;8.23;63.65;100384.97;10523963;28;20040;-80
2023/03/20 10:47:57;;;;;;;17.83;9.13;;;;;;;8.30;63.60;100374.59;10502957;28;20045;-81
2023/03/20 10:52:59;;;;;;;14.02;9.15;;;;;;;8.31;63.60;100364.47;10504525;28;20426;-82
2023/03/20 10:58:16;;;;;;;16.63;9.05;;;;;;;8.30;63.91;100362.84;10510315;28;20052;-86
2023/03/20 11:03:27;;;;;;;12.77;8.77;;;;;;;8.37;64.19;100350.56;10517878;28;20303;-87
2023/03/20 11:08:34;;;;;;;14.38;9.20;;;;;;;8.37;63.54;100336.91;10454881;28;20045;-86
2023/03/20 11:13:43;;;;;;;18.52;9.45;;;;;;;8.46;63.60;100334.44;10465894;28;20220;-87
2023/03/20 11:18:51;;;;;;;17.83;9.27;;;;;;;8.60;63.48;100331.97;10542168;28;20063;-86
2023/03/20 11:23:54;;;;;;;13.88;8.30;;;;;;;8.72;63.04;100322.38;10492884;28;20044;-87
2023/03/20 11:28:58;;;;;;;16.73;8.50;;;;;;;8.74;63.37;100314.72;10490627;28;20051;-86
2023/03/20 11:34:03;;;;;;;17.63;8.15;;;;;;;8.76;63.22;100309.78;10504929;28;20044;-81
2023/03/20 11:39:12;;;;;;;11.05;6.93;;;;;;;8.75;62.64;100302.66;10535345;28;20417;-81
2023/03/20 11:44:24;;;;;;;10.45;7.35;;;;;;;8.79;63.34;100299.38;10506273;28;20040;-81
2023/03/20 11:49:29;;;;;;;12.02;7.32;;;;;;;8.89;63.26;100291.16;10503212;28;20040;-84
2023/03/20 11:54:31;;;;;;;12.07;7.45;;;;;;;8.95;62.98;100284.56;10473108;28;20036;-86
2023/03/20 11:59:35;;;;;;;7.43;4.60;;;;;;;9.01;62.29;100291.63;10469694;28;20039;-83
2023/03/20 12:04:40;;;;;;;8.82;5.05;;;;;;;9.01;62.17;100272.47;10507126;28;20040;-83
2023/03/20 12:09:56;;;;;;;10.90;5.88;;;;;;;9.05;62.32;100271.66;10504653;28;20053;-83
2023/03/20 12:15:13;;;;;;;11.10;6.28;;;;;;;9.22;62.06;100260.34;10504531;28;20045;-83
2023/03/20 12:20:33;;;;;;;11.00;5.82;;;;;;;9.20;61.44;100254.34;10519523;28;20045;-82
2023/03/20 12:25:37;;;;;;;11.93;6.43;;;;;;;9.29;61.63;100249.91;10528887;28;20029;-80
2023/03/20 12:31:04;;;;;;;9.95;5.85;;;;;;;9.23;61.25;100242.84;10539988;28;20042;-86
2023/03/20 12:36:20;;;;;;;8.23;5.93;;;;;;;9.12;62.18;100243.97;10507387;28;20044;-86
2023/03/20 12:41:29;;;;;;;12.27;6.80;;;;;;;9.04;61.71;100242.66;10471238;28;20036;-81
2023/03/20 12:46:55;;;;;;;13.43;5.85;;;;;;;8.99;62.42;100231.72;10522834;28;20066;-82
2023/03/20 12:52:07;;;;;;;11.05;6.88;;;;;;;8.96;62.64;100221.31;10542251;28;20055;-83
2023/03/20 12:57:28;;;;;;;10.75;7.15;;;;;;;8.83;62.71;100215.63;10515548;28;20067;-85
2023/03/20 13:02:42;;;;;;;12.10;6.55;;;;;;;8.72;63.26;100210.22;10512367;28;20051;-83
2023/03/20 13:08:10;;;;;;;17.00;7.18;;;;;;;8.63;63.19;100203.66;10508191;28;20054;-84
2023/03/20 13:13:22;;;;;;;10.23;6.60;;;;;;;8.60;63.60;100193.28;10507738;28;20052;-83
2023/03/20 13:18:48;;;;;;;12.65;6.97;;;;;;;8.65;63.66;100190.53;10493957;28;20041;-85
2023/03/20 13:24:13;;;;;;;10.07;5.97;;;;;;;8.66;63.75;100186.69;10535825;28;20032;-82
2023/03/20 13:29:47;;;;;;;8.18;5.90;;;;;;;8.63;63.61;100184.53;10517967;28;20043;-81
2023/03/20 13:35:14;;;;;;;12.55;7.15;;;;;;;8.61;63.56;100177.72;10519226;28;20052;-82
2023/03/20 13:40:45;;;;;;;11.57;6.97;;;;;;;8.65;63.57;100179.59;10512037;28;20075;-81
2023/03/20 13:45:51;;;;;;;13.18;6.45;;;;;;;8.65;63.89;100163.19;10510598;28;20542;-81
2023/03/20 13:51:11;;;;;;;12.20;6.82;;;;;;;8.68;63.70;100157.19;10492973;28;20044;-77
2023/03/20 13:56:40;;;;;;;11.50;6.75;;;;;;;8.72;64.11;100147.31;10542346;28;20051;-78
2023/03/20 14:02:00;;;;;;;11.55;6.93;;;;;;;8.69;63.85;100142.41;10537091;28;20056;-76
2023/03/20 14:07:26;;;;;;;11.45;7.03;;;;;;;8.67;63.88;100133.63;10536773;28;20044;-77
2023/03/20 14:12:31;;;;;;;11.57;7.15;;;;;;;8.63;64.64;100132.56;10517452;28;20056;-77
2023/03/20 14:17:33;;;;;;;11.70;6.95;;;;;;;8.70;64.27;100122.16;10514473;28;20056;-78
2023/03/20 14:22:38;;;;;;;12.00;6.90;;;;;;;8.65;63.91;100115.88;10524382;28;20044;-79
2023/03/20 14:28:09;;;;;;;13.32;7.22;;;;;;;8.72;63.89;100098.06;10509026;28;20044;-79
2023/03/20 14:33:14;;;;;;;14.93;7.50;;;;;;;8.71;64.74;100096.44;10489692;28;20062;-78
2023/03/20 14:38:19;;;;;;;14.95;6.85;;;;;;;8.88;64.02;100087.03;10490776;28;20512;-79
2023/03/20 14:43:21;;;;;;;13.10;6.60;;;;;;;8.77;64.73;100073.41;10522919;28;20449;-79
2023/03/20 14:48:40;;;;;;;10.70;7.15;;;;;;;8.79;63.91;100075.03;10513116;28;20040;-79
2023/03/20 14:53:43;;;;;;;13.35;7.32;;;;;;;8.90;64.69;100071.97;10525494;28;20044;-79
2023/03/20 14:58:48;;;;;;;12.45;7.03;;;;;;;8.96;64.44;100064.53;10529275;28;20382;-79
2023/03/20 15:04:00;;;;;;;13.60;7.38;;;;;;;8.96;64.00;100070.00;10519813;28;20045;-79
2023/03/20 15:09:08;;;;;;;15.18;6.90;;;;;;;9.03;64.17;100065.03;10523821;28;20048;-80
2023/03/20 15:14:24;;;;;;;17.17;7.00;;;;;;;9.05;63.80;100057.38;10504615;28;20040;-80
2023/03/20 15:19:27;;;;;;;13.32;6.65;;;;;;;9.16;64.23;100052.59;10498473;28;20051;-80
2023/03/20 15:24:29;;;;;;;17.30;7.82;;;;;;;9.22;63.37;100041.34;10508531;28;20044;-80
2023/03/20 15:29:33;;;;;;;15.40;6.88;;;;;;;9.31;63.66;100034.13;10513467;28;20047;-78
2023/03/20 15:34:35;;;;;;;11.80;6.90;;;;;;;9.30;63.86;100032.50;10515251;28;20041;-80
2023/03/20 15:39:44;;;;;;;11.55;7.03;;;;;;;9.14;64.03;100025.53;10472998;28;20045;-81
2023/03/20 15:44:52;;;;;;;12.10;7.45;;;;;;;9.17;64.42;100026.88;10507863;28;20045;-80
2023/03/20 15:49:59;;;;;;;15.75;7.38;;;;;;;9.16;64.42;100020.59;10527793;28;20037;-80
2023/03/20 15:55:11;;;;;;;12.23;7.20;;;;;;;9.13;63.86;100012.94;10522995;28;20037;-80
2023/03/20 16:00:25;;;;;;;9.13;6.78;;;;;;;9.12;63.67;100008.56;10494843;28;20044;-78
2023/03/20 16:05:28;;;;;;;12.63;7.13;;;;;;;8.99;64.39;100001.84;10497785;28;20040;-79
2023/03/20 16:10:34;;;;;;;11.15;6.53;;;;;;;8.94;64.53;99988.19;10521673;28;20059;-83
2023/03/20 16:15:37;;;;;;;14.07;7.03;;;;;;;8.85;64.40;99994.56;10495897;28;20053;-80
2023/03/20 16:20:45;;;;;;;11.38;7.10;;;;;;;8.83;65.20;99991.28;10492802;28;20059;-79
2023/03/20 16:25:48;;;;;;;12.27;6.78;;;;;;;8.79;64.84;99982.84;10512613;28;20040;-80
2023/03/20 16:30:50;;;;;;;13.00;6.40;;;;;;;8.76;64.97;99989.72;10497160;28;20051;-81
2023/03/20 16:35:56;;;;;;;11.95;6.13;;;;;;;8.76;65.74;99986.16;10489558;28;20040;-80
2023/03/20 16:41:20;;;;;;;12.27;7.68;;;;;;;8.74;65.40;99986.44;10500429;28;20036;-79
2023/03/20 16:51:59;;;;;;;12.90;6.80;;;;;;;8.71;65.67;99981.56;10511034;28;20032;-79
2023/03/20 16:57:16;;;;;;;14.80;7.70;;;;;;;8.65;65.10;99971.72;10541234;28;20494;-80
2023/03/20 17:02:31;;;;;;;10.07;5.93;;;;;;;8.58;65.15;99976.72;10532585;28;20433;-80
2023/03/20 17:07:34;;;;;;;12.48;6.25;;;;;;;8.55;65.27;99971.81;10495073;28;20405;-78
2023/03/20 17:12:38;;;;;;;11.45;5.70;;;;;;;8.57;64.58;99966.06;10540995;28;20537;-79
2023/03/20 17:17:40;;;;;;;5.45;3.85;;;;;;;8.51;64.76;99962.56;10520906;28;20045;-78
2023/03/20 17:22:42;;;;;;;10.15;5.10;;;;;;;8.52;64.09;99952.44;10536430;28;20401;-81
2023/03/20 17:27:45;;;;;;;8.38;5.57;;;;;;;8.48;64.75;99952.16;10495730;28;20037;-82
2023/03/20 17:32:47;;;;;;;9.55;5.53;;;;;;;8.47;64.33;99947.81;10516634;28;20122;-78
2023/03/20 17:37:49;;;;;;;5.00;3.95;;;;;;;8.39;65.03;99941.03;10543263;28;20040;-78
2023/03/20 17:42:52;;;;;;;10.95;6.07;;;;;;;8.30;65.55;99931.75;10525134;28;20037;-82
2023/03/20 17:47:55;;;;;;;8.75;5.88;;;;;;;8.24;65.34;99926.59;10522042;28;20370;-80
2023/03/20 17:52:58;;;;;;;10.63;5.55;;;;;;;8.13;65.73;99928.56;10511567;28;20029;-80
2023/03/20 17:58:00;;;;;;;16.25;8.50;;;;;;;8.08;65.51;99929.44;10532227;28;20066;-78
2023/03/20 18:03:02;;;;;;;15.45;9.18;;;;;;;8.07;65.54;99919.59;10536231;28;20486;-79
2023/03/20 18:08:08;;;;;;;16.98;8.82;;;;;;;8.06;66.05;99920.69;10539411;28;20045;-78
2023/03/20 18:13:10;;;;;;;15.13;8.32;;;;;;;8.07;65.96;99919.59;10522314;28;20143;-78
2023/03/20 18:18:18;;;;;;;14.73;9.07;;;;;;;8.20;65.29;99909.16;10530985;28;20048;-77
2023/03/20 18:23:21;;;;;;;14.38;8.18;;;;;;;8.24;65.95;99904.75;10524780;28;20409;-78
2023/03/20 18:28:26;;;;;;;15.68;9.00;;;;;;;8.16;65.68;99903.44;10520634;28;20048;-84
2023/03/20 18:33:34;;;;;;;16.63;8.90;;;;;;;8.10;65.03;99890.88;10519026;28;20044;-78
2023/03/20 18:38:36;;;;;;;14.95;9.43;;;;;;;8.02;65.66;99883.31;10519108;28;20041;-80
2023/03/20 18:43:40;;;;;;;14.57;8.98;;;;;;;7.97;66.00;99886.03;10516745;28;20033;-80
2023/03/20 18:48:43;;;;;;;17.20;8.68;;;;;;;7.84;65.63;99876.59;10497081;28;20070;-80
2023/03/20 18:53:45;;;;;;;13.05;9.55;;;;;;;7.85;65.53;99875.47;10541596;28;20529;-79
2023/03/20 18:58:52;;;;;;;16.00;9.48;;;;;;;7.75;66.23;99868.16;10540153;28;20040;-78
2023/03/20 19:03:54;;;;;;;14.45;8.27;;;;;;;7.70;66.40;99867.38;10519171;28;20053;-76
2023/03/20 19:08:56;;;;;;;17.20;9.55;;;;;;;7.71;66.70;99869.00;10515679;28;20036;-77
2023/03/20 19:13:59;;;;;;;14.95;9.13;;;;;;;7.76;66.03;99860.75;10521439;28;20051;-78
2023/03/20 19:19:03;;;;;;;17.05;9.00;;;;;;;7.77;66.09;99856.94;10540188;28;20068;-78
2023/03/20 19:24:06;;;;;;;14.20;8.82;;;;;;;7.95;65.73;99855.47;10514711;28;20037;-78
2023/03/20 19:29:10;;;;;;;16.88;9.77;;;;;;;7.82;65.93;99849.56;10510187;28;20507;-78
2023/03/20 19:34:12;;;;;;;16.55;9.73;;;;;;;7.83;65.72;99853.91;10502906;28;20537;-77
2023/03/20 19:39:15;;;;;;;13.70;8.98;;;;;;;7.80;65.72;99848.19;10496624;28;20048;-78
2023/03/20 19:44:18;;;;;;;15.48;10.15;;;;;;;7.82;65.31;99843.28;10524695;28;20044;-79
2023/03/20 19:49:20;;;;;;;14.18;9.40;;;;;;;7.78;65.72;99836.72;10538232;28;20045;-77
2023/03/20 19:54:22;;;;;;;15.02;9.23;;;;;;;7.77;64.93;99832.34;10492650;28;20059;-77
2023/03/20 19:59:25;;;;;;;15.90;10.20;;;;;;;7.78;65.76;99826.59;10539353;28;20048;-79
2023/03/20 20:04:28;;;;;;;14.15;9.30;;;;;;;7.64;65.25;99830.28;10539300;28;20044;-77
2023/03/20 20:09:31;;;;;;;13.55;8.73;;;;;;;7.48;66.10;99827.63;10530746;28;20141;-78
2023/03/20 20:14:33;;;;;;;15.65;9.38;;;;;;;7.42;66.50;99819.72;10539259;28;20044;-78
2023/03/20 20:19:36;;;;;;;12.45;7.43;;;;;;;7.40;67.06;99820.00;10536462;28;20058;-79
2023/03/20 20:24:38;;;;;;;14.00;9.07;;;;;;;7.37;67.13;99826.03;10518684;28;20405;-81
2023/03/20 20:29:41;;;;;;;15.82;9.85;;;;;;;7.36;67.08;99821.66;10537954;28;20050;-80
2023/03/20 20:34:47;;;;;;;13.45;8.82;;;;;;;7.34;67.33;99814.84;10521525;28;20055;-79
2023/03/20 20:39:53;;;;;;;13.68;9.43;;;;;;;7.36;67.47;99832.56;10538526;28;20322;-81
2023/03/20 20:45:00;;;;;;;16.02;9.70;;;;;;;7.24;67.42;99832.88;10536765;28;20047;-79
2023/03/20 20:50:08;;;;;;;16.57;9.73;;;;;;;7.26;67.65;99829.88;10483639;28;20412;-80
2023/03/20 20:55:13;;;;;;;15.90;9.77;;;;;;;7.19;68.10;99829.38;10520307;28;20063;-78
2023/03/20 21:00:16;;;;;;;15.07;9.95;;;;;;;7.05;68.28;99848.22;10523822;28;20055;-78
2023/03/20 21:05:19;;;;;;;16.60;10.82;;;;;;;6.61;70.06;99845.34;10509630;28;20064;-78
2023/03/20 21:10:21;;;;;;;17.20;10.38;;;;;;;6.28;71.52;99842.06;10517076;28;20064;-77
2023/03/20 21:15:24;;;;;;;16.10;10.75;;;;;;;5.94;72.56;99847.22;10495865;28;20037;-77
2023/03/20 21:20:26;;;;;;;14.13;10.02;;;;;;;5.80;74.29;99856.16;10498852;28;20506;-77
2023/03/20 21:25:29;;;;;;;14.80;10.18;;;;;;;5.67;75.46;99847.41;10495852;28;20071;-77
2023/03/20 21:30:31;;;;;;;17.67;10.00;;;;;;;5.55;75.87;99849.53;10516337;28;20051;-77
2023/03/20 21:35:34;;;;;;;14.20;9.20;;;;;;;5.43;77.12;99836.16;10530426;28;20051;-78
2023/03/20 21:40:36;;;;;;;17.50;9.70;;;;;;;5.59;77.95;99828.06;10526838;28;20048;-78
2023/03/20 21:45:39;;;;;;;17.65;10.00;;;;;;;5.62;78.38;99825.63;10519532;28;20051;-77
2023/03/20 21:50:42;;;;;;;15.88;10.15;;;;;;;5.58;79.00;99824.53;10519470;28;20047;-78
2023/03/20 21:55:44;;;;;;;14.50;10.07;;;;;;;5.85;79.17;99816.13;10523178;28;20041;-78
2023/03/20 22:00:46;;;;;;;16.30;10.20;;;;;;;5.73;79.95;99819.13;10522606;28;20052;-79
2023/03/20 22:05:48;;;;;;;16.90;10.60;;;;;;;5.56;81.10;99817.72;10526631;28;20040;-78
2023/03/20 22:10:51;;;;;;;20.52;11.10;;;;;;;5.45;82.87;99822.31;10530027;28;20059;-78
2023/03/20 22:15:53;;;;;;;16.70;9.80;;;;;;;5.30;84.53;99819.53;10524835;28;20040;-78
2023/03/20 22:20:59;;;;;;;13.85;9.95;;;;;;;5.22;86.23;99806.44;10529074;28;20052;-77
2023/03/20 22:26:04;;;;;;;16.88;10.30;;;;;;;5.12;86.79;99804.50;10507991;28;20448;-80
2023/03/20 22:31:12;;;;;;;13.18;8.80;;;;;;;5.06;87.92;99798.22;10491734;28;20419;-78
2023/03/20 22:36:15;;;;;;;18.23;10.50;;;;;;;5.09;89.13;99805.03;10523135;28;20516;-77
2023/03/20 22:41:18;;;;;;;15.05;8.85;;;;;;;5.07;89.91;99799.84;10527730;28;20049;-77
2023/03/20 22:46:20;;;;;;;12.68;8.20;;;;;;;5.00;90.01;99801.97;10488850;28;20045;-77
2023/03/20 22:51:23;;;;;;;12.98;8.02;;;;;;;4.92;91.14;99796.25;10504335;28;20048;-78
2023/03/20 22:56:25;;;;;;;12.00;7.20;;;;;;;4.94;92.37;99805.78;10499076;28;20043;-78
2023/03/20 23:01:28;;;;;;;10.05;6.55;;;;;;;4.90;93.31;99803.84;10526072;28;20052;-78
2023/03/20 23:06:30;;;;;;;7.85;5.80;;;;;;;4.84;93.66;99801.09;10516135;28;20497;-78
2023/03/20 23:11:33;;;;;;;9.18;6.22;;;;;;;4.75;94.02;99812.75;10505411;28;20049;-78
2023/03/20 23:16:36;;;;;;;10.15;6.32;;;;;;;4.62;94.29;99807.75;10480260;28;20188;-78
2023/03/20 23:21:39;;;;;;;9.45;6.75;;;;;;;4.49;95.22;99790.00;10519492;28;20640;-77
2023/03/20 23:26:42;;;;;;;10.70;6.88;;;;;;;4.36;94.56;99793.22;10492102;28;20045;-77
2023/03/20 23:31:44;;;;;;;10.57;7.10;;;;;;;4.25;95.09;99805.88;10490992;28;20033;-78
2023/03/20 23:36:46;;;;;;;12.02;6.95;;;;;;;4.29;95.93;99808.88;10526009;28;20047;-77
2023/03/20 23:41:50;;;;;;;10.88;7.18;;;;;;;4.18;95.85;99797.97;10494598;28;20402;-77
2023/03/20 23:46:53;;;;;;;10.20;6.40;;;;;;;4.09;95.88;99804.94;10526803;28;20513;-77
2023/03/20 23:51:55;;;;;;;10.73;6.30;;;;;;;4.07;96.15;99798.94;10525951;28;20033;-77